createdAt,value
2023-06-14T05:36:22.985Z,101082.69
2023-06-14T05:37:14.933Z,101083.59
2023-06-14T05:38:06.728Z,101089.75
2023-06-14T05:39:01.863Z,101088.03
2023-06-14T05:39:53.412Z,101087.19
2023-06-14T05:40:44.918Z,101088.19
2023-06-14T05:41:36.366Z,101085.66
2023-06-14T05:42:28.097Z,101091.84
2023-06-14T05:43:19.798Z,101093.63
2023-06-14T05:44:11.286Z,101097.16
2023-06-14T05:45:07.240Z,101088.47
2023-06-14T05:45:58.741Z,101095.50
2023-06-14T05:46:50.211Z,101092.06
2023-06-14T05:47:41.705Z,101096.47
2023-06-14T05:48:33.624Z,101101.84
2023-06-14T05:49:25.108Z,101094.03
2023-06-14T05:50:16.557Z,101095.78
2023-06-14T05:51:14.469Z,101092.28
2023-06-14T05:52:06.799Z,101104.59
2023-06-14T05:52:58.250Z,101103.78
2023-06-14T05:53:50.157Z,101098.63
2023-06-14T05:54:42.668Z,101096.94
2023-06-14T05:55:34.087Z,101103.91
2023-06-14T05:56:28.765Z,101102.19
2023-06-14T05:57:20.291Z,101103.06
2023-06-14T05:58:14.615Z,101102.22
2023-06-14T05:59:06.097Z,101110.13
2023-06-14T05:59:57.539Z,101103.13
2023-06-14T06:00:49.109Z,101102.22
2023-06-14T06:01:43.451Z,101103.13
2023-06-14T06:02:35.113Z,101107.50
2023-06-14T06:03:30.181Z,101108.38
2023-06-14T06:04:22.250Z,101107.50
2023-06-14T06:05:14.773Z,101107.50
2023-06-14T06:06:06.869Z,101103.16
2023-06-14T06:06:58.351Z,101111.91
2023-06-14T06:07:50.596Z,101114.53
2023-06-14T06:08:42.378Z,101112.78
2023-06-14T06:09:34.175Z,101109.28
2023-06-14T06:10:25.718Z,101116.28
2023-06-14T06:11:17.183Z,101115.41
2023-06-14T06:12:13.381Z,101110.16
2023-06-14T06:13:09.103Z,101114.53
2023-06-14T06:14:04.541Z,101110.16
2023-06-14T06:14:56.382Z,101108.41
2023-06-14T06:15:50.446Z,101105.78
2023-06-14T06:16:44.403Z,101112.78
2023-06-14T06:17:50.524Z,101111.91
2023-06-14T06:18:46.763Z,101116.28
2023-06-14T06:19:38.239Z,101117.16
2023-06-14T06:20:32.725Z,101114.59
2023-06-14T06:21:24.125Z,101113.69
2023-06-14T06:22:15.497Z,101120.69
2023-06-14T06:23:07.074Z,101110.19
2023-06-14T06:24:00.869Z,101116.28
2023-06-14T06:24:52.419Z,101116.25
2023-06-14T06:25:49.878Z,101116.22
2023-06-14T06:26:41.408Z,101112.72
2023-06-14T06:27:33.642Z,101121.50
2023-06-14T06:28:25.513Z,101121.50
2023-06-14T06:29:16.901Z,101118.81
2023-06-14T06:30:08.738Z,101115.31
2023-06-14T06:31:51.666Z,101124.06
2023-06-14T06:32:43.234Z,101120.56
2023-06-14T06:33:34.808Z,101114.44
2023-06-14T06:34:26.783Z,101119.69
2023-06-14T06:35:18.481Z,101129.34
2023-06-14T06:36:12.845Z,101128.44
2023-06-14T06:37:04.608Z,101121.41
2023-06-14T06:37:56.503Z,101113.50
2023-06-14T06:38:48.870Z,101117.00
2023-06-14T06:39:40.730Z,101122.25
2023-06-14T06:40:32.378Z,101121.38
2023-06-14T06:41:28.499Z,101124.91
2023-06-14T06:42:19.884Z,101118.75
2023-06-14T06:43:18.846Z,101130.19
2023-06-14T06:44:13.342Z,101125.78
2023-06-14T06:45:05.688Z,101130.19
2023-06-14T06:45:57.080Z,101124.91
2023-06-14T06:46:53.642Z,101128.41
2023-06-14T06:47:45.172Z,101133.66
2023-06-14T06:48:36.584Z,101127.53
2023-06-14T06:49:28.549Z,101128.34
2023-06-14T06:50:24.081Z,101143.25
2023-06-14T06:51:15.602Z,101138.00
2023-06-14T06:52:08.336Z,101139.78
2023-06-14T06:53:00.090Z,101142.44
2023-06-14T06:53:57.030Z,101134.44
2023-06-14T06:54:48.415Z,101139.66
2023-06-14T06:55:39.861Z,101137.03
2023-06-14T06:56:32.508Z,101144.06
2023-06-14T06:57:24.649Z,101142.25
2023-06-14T06:58:16.217Z,101144.03
2023-06-14T06:59:07.616Z,101139.63
2023-06-14T06:59:59.109Z,101144.03
2023-06-14T07:00:52.767Z,101141.38
2023-06-14T07:01:44.555Z,101149.28
2023-06-14T07:02:36.372Z,101142.25
2023-06-14T07:03:27.792Z,101143.13
2023-06-14T07:04:19.355Z,101145.72
2023-06-14T07:05:11.048Z,101140.44
2023-06-14T07:06:03.937Z,101143.88
2023-06-14T07:06:55.737Z,101148.22
2023-06-14T07:07:47.264Z,101143.78
2023-06-14T07:08:42.185Z,101148.91
2023-06-14T07:09:33.589Z,101148.03
2023-06-14T07:10:28.600Z,101143.53
2023-06-14T07:11:20.262Z,101142.63
2023-06-14T07:12:14.202Z,101146.94
2023-06-14T07:13:05.863Z,101145.13
2023-06-14T07:13:57.417Z,101146.00
2023-06-14T07:14:48.974Z,101138.06
2023-06-14T07:15:40.398Z,101146.81
2023-06-14T07:16:31.910Z,101144.09
2023-06-14T07:17:25.678Z,101144.06
2023-06-14T07:18:17.161Z,101140.50
2023-06-14T07:19:11.272Z,101141.31
2023-06-14T07:20:12.666Z,101144.72
2023-06-14T07:21:04.537Z,101144.63
2023-06-14T07:21:56.025Z,101144.50
2023-06-14T07:22:48.030Z,101148.75
2023-06-14T07:23:40.267Z,101140.72
2023-06-14T07:24:31.992Z,101140.66
2023-06-14T07:25:23.990Z,101138.78
2023-06-14T07:26:15.710Z,101140.44
2023-06-14T07:27:09.925Z,101141.25
2023-06-14T07:28:01.406Z,101143.75
2023-06-14T07:28:53.582Z,101136.69
2023-06-14T07:29:45.087Z,101129.63
2023-06-14T07:30:36.736Z,101135.81
2023-06-14T07:31:28.379Z,101140.19
2023-06-14T07:32:19.980Z,101144.50
2023-06-14T07:33:13.280Z,101137.41
2023-06-14T07:34:04.961Z,101141.75
2023-06-14T07:34:56.497Z,101138.31
2023-06-14T07:35:53.545Z,101141.75
2023-06-14T07:36:48.716Z,101139.94
2023-06-14T07:37:41.546Z,101139.84
2023-06-14T07:38:42.131Z,101146.81
2023-06-14T07:39:35.729Z,101139.78
2023-06-14T07:40:27.657Z,101147.72
2023-06-14T07:41:22.022Z,101145.06
2023-06-14T07:42:15.039Z,101145.91
2023-06-14T07:43:06.722Z,101139.63
2023-06-14T07:43:58.213Z,101143.00
2023-06-14T07:44:51.331Z,101141.13
2023-06-14T07:45:51.026Z,101140.25
2023-06-14T07:46:50.620Z,101141.03
2023-06-14T07:47:42.211Z,101136.75
2023-06-14T07:48:33.922Z,101135.78
2023-06-14T07:49:25.741Z,101136.47
2023-06-14T07:50:17.209Z,101130.09
2023-06-14T07:51:08.944Z,101141.59
2023-06-14T07:52:00.602Z,101137.13
2023-06-14T07:52:52.059Z,101136.16
2023-06-14T07:53:43.513Z,101142.38
2023-06-14T07:54:35.007Z,101138.88
2023-06-14T07:55:26.481Z,101133.53
2023-06-14T07:56:19.209Z,101134.13
2023-06-14T07:57:10.818Z,101144.66
2023-06-14T07:58:02.296Z,101142.06
2023-06-14T07:58:53.869Z,101140.44
2023-06-14T07:59:45.416Z,101142.91
2023-06-14T08:00:38.126Z,101139.53
2023-06-14T08:01:29.612Z,101136.88
2023-06-14T08:02:21.160Z,101143.09
2023-06-14T08:03:12.823Z,101143.03
2023-06-14T08:04:05.929Z,101135.97
2023-06-14T08:04:59.186Z,101139.53
2023-06-14T08:05:51.247Z,101142.97
2023-06-14T08:06:49.250Z,101141.09
2023-06-14T08:07:43.860Z,101135.84
2023-06-14T08:08:35.618Z,101136.59
2023-06-14T08:09:28.960Z,101136.47
2023-06-14T08:10:23.071Z,101138.22
2023-06-14T08:11:14.541Z,101139.91
2023-06-14T08:12:08.486Z,101131.19
2023-06-14T08:13:02.919Z,101136.50
2023-06-14T08:13:54.643Z,101137.34
2023-06-14T08:14:46.737Z,101126.81
2023-06-14T08:15:39.849Z,101137.25
2023-06-14T08:16:33.619Z,101138.94
2023-06-14T08:17:27.499Z,101134.47
2023-06-14T08:18:18.996Z,101134.53
2023-06-14T08:19:10.474Z,101142.53
2023-06-14T08:20:02.252Z,101137.19
2023-06-14T08:20:55.225Z,101136.16
2023-06-14T08:21:47.170Z,101135.13
2023-06-14T08:22:38.987Z,101135.97
2023-06-14T08:23:30.378Z,101132.31
2023-06-14T08:24:30.816Z,101130.38
2023-06-14T08:25:22.247Z,101134.72
2023-06-14T08:26:14.029Z,101129.34
2023-06-14T08:27:06.756Z,101123.31
2023-06-14T08:27:58.413Z,101139.22
2023-06-14T08:28:50.114Z,101142.50
2023-06-14T08:29:42.869Z,101129.31
2023-06-14T08:30:34.339Z,101135.38
2023-06-14T08:31:28.694Z,101134.72
2023-06-14T08:32:22.963Z,101138.19
2023-06-14T08:33:17.290Z,101136.44
2023-06-14T08:34:09.855Z,101134.94
2023-06-14T08:35:05.330Z,101138.03
2023-06-14T08:35:57.633Z,101130.22
2023-06-14T08:36:49.106Z,101135.16
2023-06-14T08:37:44.952Z,101136.06
2023-06-14T08:38:36.531Z,101132.53
2023-06-14T08:39:28.139Z,101132.66
2023-06-14T08:40:22.524Z,101129.22
2023-06-14T08:41:22.401Z,101133.88
2023-06-14T08:42:27.564Z,101124.25
2023-06-14T08:43:23.382Z,101132.72
2023-06-14T08:44:17.433Z,101134.31
2023-06-14T08:45:09.296Z,101129.72
2023-06-14T08:46:05.763Z,101134.00
2023-06-14T08:46:59.324Z,101132.28
2023-06-14T08:47:58.929Z,101130.56
2023-06-14T08:48:53.211Z,101128.81
2023-06-14T08:49:50.352Z,101131.63
2023-06-14T08:50:44.863Z,101132.38
2023-06-14T08:51:37.714Z,101130.69
2023-06-14T08:52:41.261Z,101129.72
2023-06-14T08:53:36.726Z,101132.44
2023-06-14T08:54:37.424Z,101130.69
2023-06-14T08:55:31.848Z,101133.34
2023-06-14T08:56:30.508Z,101133.44
2023-06-14T08:57:39.675Z,101123.81
2023-06-14T08:58:49.347Z,101128.88
2023-06-14T08:59:54.969Z,101123.84
2023-06-14T09:01:22.217Z,101119.84
2023-06-14T09:02:15.898Z,101130.53
2023-06-14T09:03:14.516Z,101118.13
2023-06-14T09:04:06.755Z,101120.75
2023-06-14T09:05:06.869Z,101114.41
2023-06-14T09:06:09.789Z,101115.03
2023-06-14T09:07:07.645Z,101117.59
2023-06-14T09:08:06.718Z,101121.00
2023-06-14T09:09:17.694Z,101126.38
2023-06-14T09:10:12.603Z,101118.41
2023-06-14T09:11:25.430Z,101121.84
2023-06-14T09:14:01.833Z,101116.72
2023-06-14T09:14:53.891Z,101122.75
2023-06-14T09:15:46.999Z,101123.66
2023-06-14T09:17:17.874Z,101125.13
2023-06-14T09:18:24.046Z,101122.50
2023-06-14T09:19:25.857Z,101112.38
2023-06-14T09:20:20.790Z,101111.38
2023-06-14T09:21:13.485Z,101123.56
2023-06-14T09:22:06.073Z,101118.09
2023-06-14T09:23:01.921Z,101116.63
2023-06-14T09:23:58.196Z,101126.28
2023-06-14T09:24:51.986Z,101117.69
2023-06-14T09:26:10.448Z,101119.75
2023-06-14T09:27:02.301Z,101124.56
2023-06-14T09:27:59.354Z,101118.13
2023-06-14T09:28:51.949Z,101126.91
2023-06-14T09:29:46.534Z,101128.63
2023-06-14T09:30:39.725Z,101123.28
2023-06-14T09:31:34.181Z,101125.75
2023-06-14T09:32:26.829Z,101123.28
2023-06-14T09:33:25.587Z,101127.22
2023-06-14T09:34:24.352Z,101126.78
2023-06-14T09:35:19.462Z,101123.91
2023-06-14T09:36:17.273Z,101128.53
2023-06-14T09:37:09.765Z,101122.47
2023-06-14T09:38:03.868Z,101136.66
2023-06-14T09:38:59.715Z,101136.91
2023-06-14T09:39:53.940Z,101130.91
2023-06-14T09:40:46.585Z,101131.41
2023-06-14T09:41:42.275Z,101134.69
2023-06-14T09:42:36.689Z,101130.63
2023-06-14T09:43:29.374Z,101135.44
2023-06-14T09:44:22.381Z,101133.72
2023-06-14T09:45:15.332Z,101121.75
2023-06-14T09:46:07.365Z,101127.41
2023-06-14T09:46:58.857Z,101130.13
2023-06-14T09:48:05.351Z,101139.06
2023-06-14T09:49:02.961Z,101130.38
2023-06-14T09:49:56.029Z,101124.44
2023-06-14T09:50:50.645Z,101131.47
2023-06-14T09:51:50.710Z,101134.28
2023-06-14T09:52:45.889Z,101141.59
2023-06-14T09:53:38.000Z,101133.91
2023-06-14T09:54:31.653Z,101129.63
2023-06-14T09:55:26.906Z,101140.13
2023-06-14T09:56:30.463Z,101140.31
2023-06-14T09:57:23.987Z,101134.13
2023-06-14T09:58:21.414Z,101133.94
2023-06-14T09:59:13.654Z,101130.13
2023-06-14T10:00:11.720Z,101134.69
2023-06-14T10:01:09.319Z,101142.75
2023-06-14T10:02:24.971Z,101127.28
2023-06-14T10:03:30.446Z,101130.25
2023-06-14T10:04:24.505Z,101133.50
2023-06-14T10:05:18.870Z,101127.16
2023-06-14T10:06:10.879Z,101135.78
2023-06-14T10:07:04.595Z,101136.59
2023-06-14T10:08:06.309Z,101136.44
2023-06-14T10:09:02.688Z,101130.31
2023-06-14T10:09:57.282Z,101127.75
2023-06-14T10:10:49.175Z,101132.66
2023-06-14T10:11:45.984Z,101133.13
2023-06-14T10:12:37.665Z,101128.41
2023-06-14T10:13:37.097Z,101127.88
2023-06-14T10:14:29.770Z,101125.19
2023-06-14T10:15:39.784Z,101131.81
2023-06-14T10:16:43.766Z,101126.28
2023-06-14T10:17:46.344Z,101119.81
2023-06-14T10:19:06.080Z,101122.69
2023-06-14T10:20:20.821Z,101126.19
2023-06-14T10:21:30.014Z,101121.66
2023-06-14T10:22:36.100Z,101118.13
2023-06-14T10:23:31.109Z,101126.50
2023-06-14T10:24:31.927Z,101124.47
2023-06-14T10:25:31.426Z,101124.31
2023-06-14T10:26:25.972Z,101124.38
2023-06-14T10:27:24.780Z,101125.41
2023-06-14T10:28:24.241Z,101124.69
2023-06-14T10:29:15.711Z,101114.81
2023-06-14T10:30:10.218Z,101118.31
2023-06-14T10:31:12.110Z,101118.25
2023-06-14T10:32:06.023Z,101118.41
2023-06-14T10:33:11.134Z,101123.47
2023-06-14T10:34:06.314Z,101119.53
2023-06-14T10:35:05.979Z,101119.72
2023-06-14T10:36:32.216Z,101118.84
2023-06-14T10:37:25.431Z,101114.84
2023-06-14T10:38:35.251Z,101126.69
2023-06-14T10:39:28.128Z,101122.88
2023-06-14T10:40:32.228Z,101127.59
2023-06-14T10:41:28.312Z,101122.91
2023-06-14T10:42:21.954Z,101121.91
2023-06-14T10:43:24.347Z,101123.00
2023-06-14T10:44:15.942Z,101115.19
2023-06-14T10:45:07.772Z,101118.03
2023-06-14T10:46:18.157Z,101120.88
2023-06-14T10:47:31.175Z,101124.38
2023-06-14T10:48:31.005Z,101122.84
2023-06-14T10:49:43.897Z,101115.25
2023-06-14T10:50:36.703Z,101118.06
2023-06-14T10:51:46.364Z,101109.06
2023-06-14T10:52:45.335Z,101104.09
2023-06-14T10:53:43.778Z,101112.00
2023-06-14T10:54:35.209Z,101107.06
2023-06-14T10:55:35.651Z,101115.09
2023-06-14T10:56:33.691Z,101110.50
2023-06-14T10:57:25.173Z,101113.09
2023-06-14T10:58:16.785Z,101111.53
2023-06-14T10:59:08.214Z,101109.09
2023-06-14T11:00:15.998Z,101113.41
2023-06-14T11:01:09.544Z,101107.09
2023-06-14T11:02:48.585Z,101107.91
2023-06-14T11:03:56.417Z,101112.09
2023-06-14T11:04:51.437Z,101116.38
2023-06-14T11:05:53.842Z,101115.53
2023-06-14T11:06:51.098Z,101115.50
2023-06-14T11:08:06.056Z,101119.94
2023-06-14T11:09:13.580Z,101119.34
2023-06-14T11:10:26.523Z,101126.63
2023-06-14T11:11:19.384Z,101126.72
2023-06-14T11:12:12.809Z,101116.47
2023-06-14T11:13:05.171Z,101118.22
2023-06-14T11:13:56.631Z,101124.25
2023-06-14T11:14:49.812Z,101120.47
2023-06-14T11:15:46.976Z,101128.72
2023-06-14T11:16:38.809Z,101131.00
2023-06-14T11:17:31.435Z,101121.28
2023-06-14T11:18:25.900Z,101119.63
2023-06-14T11:19:18.883Z,101126.31
2023-06-14T11:20:17.102Z,101113.19
2023-06-14T11:21:11.768Z,101115.22
2023-06-14T11:22:06.769Z,101111.84
2023-06-14T11:22:59.441Z,101116.69
2023-06-14T11:23:56.221Z,101120.56
2023-06-14T11:24:51.124Z,101116.00
2023-06-14T11:25:42.885Z,101117.34
2023-06-14T11:26:36.417Z,101111.38
2023-06-14T11:27:28.545Z,101107.16
2023-06-14T11:28:22.936Z,101105.78
2023-06-14T11:29:18.690Z,101114.16
2023-06-14T11:30:11.373Z,101111.19
2023-06-14T11:31:04.292Z,101109.81
2023-06-14T11:31:56.304Z,101104.31
2023-06-14T11:32:58.638Z,101111.66
2023-06-14T11:33:51.873Z,101110.81
2023-06-14T11:34:47.786Z,101106.25
2023-06-14T11:35:39.363Z,101100.47
2023-06-14T11:36:32.438Z,101104.88
2023-06-14T11:37:27.960Z,101102.81
2023-06-14T11:38:19.594Z,101101.00
2023-06-14T11:39:11.993Z,101110.84
2023-06-14T11:40:09.098Z,101110.09
2023-06-14T11:41:01.735Z,101105.75
2023-06-14T11:41:56.881Z,101110.84
2023-06-14T11:42:48.589Z,101105.59
2023-06-14T11:43:41.848Z,101096.13
2023-06-14T11:44:33.937Z,101096.22
2023-06-14T11:45:26.204Z,101101.91
2023-06-14T11:46:18.924Z,101101.28
2023-06-14T11:47:10.591Z,101103.44
2023-06-14T11:48:02.378Z,101103.34
2023-06-14T11:48:54.292Z,101107.63
2023-06-14T11:49:45.870Z,101098.06
2023-06-14T11:50:39.591Z,101098.53
2023-06-14T11:51:37.275Z,101093.25
2023-06-14T11:52:31.725Z,101104.28
2023-06-14T11:53:23.483Z,101098.59
2023-06-14T11:54:17.498Z,101094.44
2023-06-14T11:55:09.701Z,101089.88
2023-06-14T11:56:04.592Z,101088.81
2023-06-14T11:56:56.156Z,101094.88
2023-06-14T11:57:48.074Z,101087.44
2023-06-14T11:58:44.501Z,101097.84
2023-06-14T11:59:49.172Z,101087.06
2023-06-14T12:00:41.053Z,101092.28
2023-06-14T12:01:37.356Z,101085.94
2023-06-14T12:02:32.392Z,101092.50
2023-06-14T12:03:29.647Z,101087.88
2023-06-14T12:04:26.089Z,101091.00
2023-06-14T12:05:22.365Z,101090.81
2023-06-14T12:06:13.952Z,101095.00
2023-06-14T12:07:21.257Z,101093.91
2023-06-14T12:08:18.576Z,101089.63
2023-06-14T12:09:15.623Z,101087.59
2023-06-14T12:10:09.426Z,101094.59
2023-06-14T12:11:06.729Z,101090.50
2023-06-14T12:12:02.388Z,101098.28
2023-06-14T12:12:59.334Z,101105.34
2023-06-14T12:13:52.539Z,101094.59
2023-06-14T12:14:44.130Z,101098.13
2023-06-14T12:15:36.183Z,101093.69
2023-06-14T12:16:41.181Z,101095.94
2023-06-14T12:17:34.907Z,101098.47
2023-06-14T12:18:37.795Z,101095.91
2023-06-14T12:19:29.204Z,101098.56
2023-06-14T12:20:24.630Z,101097.66
2023-06-14T12:21:18.945Z,101092.13
2023-06-14T12:22:14.366Z,101102.63
2023-06-14T12:23:06.031Z,101095.91
2023-06-14T12:23:57.838Z,101088.75
2023-06-14T12:24:49.796Z,101094.66
2023-06-14T12:25:42.719Z,101095.56
2023-06-14T12:26:38.798Z,101090.56
2023-06-14T12:27:33.586Z,101095.53
2023-06-14T12:28:32.720Z,101094.09
2023-06-14T12:29:25.318Z,101089.03
2023-06-14T12:30:16.914Z,101093.34
2023-06-14T12:31:08.383Z,101089.69
2023-06-14T12:32:00.483Z,101096.50
2023-06-14T12:32:52.608Z,101098.91
2023-06-14T12:33:46.696Z,101094.19
2023-06-14T12:34:42.531Z,101090.25
2023-06-14T12:35:34.023Z,101086.91
2023-06-14T12:36:26.732Z,101095.91
2023-06-14T12:37:18.193Z,101096.59
2023-06-14T12:38:12.052Z,101092.09
2023-06-14T12:39:03.500Z,101095.13
2023-06-14T12:39:54.887Z,101100.00
2023-06-14T12:40:46.426Z,101101.38
2023-06-14T12:41:38.873Z,101097.25
2023-06-14T12:42:30.602Z,101106.41
2023-06-14T12:43:22.129Z,101101.38
2023-06-14T12:44:14.273Z,101102.63
2023-06-14T12:45:06.386Z,101095.06
2023-06-14T12:45:58.039Z,101108.41
2023-06-14T12:46:52.280Z,101108.41
2023-06-14T12:47:43.885Z,101113.28
2023-06-14T12:48:37.562Z,101103.91
2023-06-14T12:49:32.934Z,101105.56
2023-06-14T12:50:26.478Z,101109.69
2023-06-14T12:51:18.577Z,101104.75
2023-06-14T12:52:10.202Z,101100.94
2023-06-14T12:53:01.747Z,101101.94
2023-06-14T12:53:53.345Z,101100.09
2023-06-14T12:54:44.975Z,101095.47
2023-06-14T12:55:39.012Z,101095.94
2023-06-14T12:56:30.544Z,101103.34
2023-06-14T12:57:21.962Z,101104.94
2023-06-14T12:58:15.726Z,101100.53
2023-06-14T12:59:07.461Z,101106.19
2023-06-14T13:00:01.587Z,101110.75
2023-06-14T13:00:53.692Z,101108.53
2023-06-14T13:01:50.759Z,101109.72
2023-06-14T13:02:42.393Z,101106.69
2023-06-14T13:03:36.729Z,101107.78
2023-06-14T13:04:28.424Z,101111.31
2023-06-14T13:05:20.081Z,101105.44
2023-06-14T13:06:12.276Z,101113.16
2023-06-14T13:07:03.888Z,101107.16
2023-06-14T13:07:55.565Z,101115.81
2023-06-14T13:08:47.207Z,101107.00
2023-06-14T13:09:38.992Z,101112.44
2023-06-14T13:10:30.459Z,101109.34
2023-06-14T13:11:21.930Z,101112.00
2023-06-14T13:12:13.672Z,101117.56
2023-06-14T13:13:05.329Z,101110.56
2023-06-14T13:13:58.157Z,101104.63
2023-06-14T13:14:49.719Z,101096.25
2023-06-14T13:15:41.324Z,101101.78
2023-06-14T13:16:32.910Z,101107.66
2023-06-14T13:17:24.439Z,101113.25
2023-06-14T13:18:20.150Z,101113.47
2023-06-14T13:19:11.567Z,101108.84
2023-06-14T13:20:03.321Z,101112.38
2023-06-14T13:20:54.862Z,101106.28
2023-06-14T13:21:46.429Z,101110.09
2023-06-14T13:22:37.958Z,101118.97
2023-06-14T13:23:29.607Z,101108.41
2023-06-14T13:24:21.543Z,101113.31
2023-06-14T13:25:13.105Z,101112.13
2023-06-14T13:26:04.669Z,101109.94
2023-06-14T13:26:57.575Z,101116.38
2023-06-14T13:27:52.348Z,101116.56
2023-06-14T13:28:43.820Z,101121.34
2023-06-14T13:29:36.918Z,101114.47
2023-06-14T13:30:30.562Z,101114.91
2023-06-14T13:31:22.222Z,101118.00
2023-06-14T13:32:13.826Z,101113.78
2023-06-14T13:33:05.522Z,101108.41
2023-06-14T13:33:57.068Z,101112.59
2023-06-14T13:34:48.996Z,101116.41
2023-06-14T13:35:42.040Z,101121.00
2023-06-14T13:36:36.107Z,101119.88
2023-06-14T13:37:27.701Z,101109.59
2023-06-14T13:38:19.776Z,101113.09
2023-06-14T13:39:12.134Z,101106.94
2023-06-14T13:40:03.937Z,101106.59
2023-06-14T13:40:56.230Z,101106.81
2023-06-14T13:41:47.680Z,101114.00
2023-06-14T13:42:40.263Z,101107.25
2023-06-14T13:43:31.786Z,101109.38
2023-06-14T13:44:27.680Z,101112.19
2023-06-14T13:45:19.214Z,101106.56
2023-06-14T13:46:13.091Z,101111.03
2023-06-14T13:47:05.173Z,101100.34
2023-06-14T13:47:59.230Z,101108.50
2023-06-14T13:48:52.241Z,101111.94
2023-06-14T13:49:44.106Z,101118.75
2023-06-14T13:50:35.949Z,101119.00
2023-06-14T13:51:28.100Z,101113.06
2023-06-14T13:52:19.566Z,101115.22
2023-06-14T13:53:11.044Z,101122.94
2023-06-14T13:54:02.458Z,101125.03
2023-06-14T13:54:53.935Z,101121.34
2023-06-14T13:55:45.413Z,101124.16
2023-06-14T13:56:37.290Z,101124.03
2023-06-14T13:57:29.065Z,101120.00
2023-06-14T13:58:25.131Z,101118.94
2023-06-14T13:59:17.295Z,101121.84
2023-06-14T14:00:09.772Z,101120.69
2023-06-14T14:01:04.200Z,101109.13
2023-06-14T14:01:55.858Z,101115.38
2023-06-14T14:02:47.369Z,101116.41
2023-06-14T14:03:38.897Z,101119.00
2023-06-14T14:04:30.499Z,101116.56
2023-06-14T14:05:29.485Z,101112.66
2023-06-14T14:06:21.497Z,101111.59
2023-06-14T14:07:14.893Z,101113.25
2023-06-14T14:08:08.646Z,101109.59
2023-06-14T14:09:01.468Z,101106.47
2023-06-14T14:09:54.700Z,101118.38
2023-06-14T14:10:46.976Z,101117.75
2023-06-14T14:11:42.522Z,101112.00
2023-06-14T14:12:36.283Z,101121.81
2023-06-14T14:13:30.485Z,101122.00
2023-06-14T14:14:24.452Z,101119.00
2023-06-14T14:15:16.683Z,101119.03
2023-06-14T14:16:11.904Z,101123.13
2023-06-14T14:17:03.782Z,101118.72
2023-06-14T14:17:55.661Z,101119.00
2023-06-14T14:18:50.136Z,101120.81
2023-06-14T14:19:41.973Z,101125.13
2023-06-14T14:20:33.535Z,101113.06
2023-06-14T14:21:25.375Z,101118.41
2023-06-14T14:22:16.904Z,101123.13
2023-06-14T14:23:10.511Z,101127.06
2023-06-14T14:24:01.936Z,101118.34
2023-06-14T14:24:55.597Z,101123.94
2023-06-14T14:25:47.519Z,101125.78
2023-06-14T14:26:42.089Z,101119.31
2023-06-14T14:27:33.654Z,101120.50
2023-06-14T14:28:25.186Z,101127.25
2023-06-14T14:29:17.922Z,101117.50
2023-06-14T14:30:09.848Z,101111.66
2023-06-14T14:31:04.462Z,101115.25
2023-06-14T14:31:59.968Z,101107.81
2023-06-14T14:32:52.617Z,101113.19
2023-06-14T14:33:44.574Z,101118.28
2023-06-14T14:34:36.240Z,101110.47
2023-06-14T14:35:31.422Z,101113.47
2023-06-14T14:36:23.159Z,101118.16
2023-06-14T14:37:16.046Z,101118.28
2023-06-14T14:38:07.495Z,101108.94
2023-06-14T14:38:59.076Z,101116.00
2023-06-14T14:39:50.495Z,101105.75
2023-06-14T14:40:42.228Z,101109.66
2023-06-14T14:41:34.801Z,101110.31
2023-06-14T14:42:27.555Z,101110.16
2023-06-14T14:43:18.995Z,101111.31
2023-06-14T14:44:10.435Z,101114.50
2023-06-14T14:45:03.093Z,101110.06
2023-06-14T14:45:54.563Z,101115.00
2023-06-14T14:46:48.655Z,101113.06
2023-06-14T14:47:40.359Z,101110.66
2023-06-14T14:48:32.041Z,101120.81
2023-06-14T14:49:23.747Z,101118.28
2023-06-14T14:50:16.232Z,101119.22
2023-06-14T14:51:08.072Z,101112.81
2023-06-14T14:52:05.517Z,101117.16
2023-06-14T14:53:08.755Z,101118.50
2023-06-14T14:54:01.378Z,101123.22
2023-06-14T14:54:53.100Z,101121.91
2023-06-14T14:55:47.552Z,101122.28
2023-06-14T14:56:39.394Z,101128.34
2023-06-14T14:57:31.343Z,101123.84
2023-06-14T14:58:24.036Z,101119.66
2023-06-14T14:59:15.695Z,101120.56
2023-06-14T15:00:07.634Z,101117.56
2023-06-14T15:01:01.959Z,101119.41
2023-06-14T15:01:54.126Z,101123.56
2023-06-14T15:02:45.816Z,101118.28
2023-06-14T15:03:49.945Z,101120.28
2023-06-14T15:04:49.119Z,101121.28
2023-06-14T15:05:40.886Z,101124.22
2023-06-14T15:06:32.292Z,101121.34
2023-06-14T15:07:23.863Z,101117.13
2023-06-14T15:08:17.659Z,101114.09
2023-06-14T15:09:09.203Z,101124.72
2023-06-14T15:10:03.663Z,101123.75
2023-06-14T15:10:55.579Z,101121.94
2023-06-14T15:11:47.150Z,101127.97
2023-06-14T15:12:41.251Z,101123.47
2023-06-14T15:13:33.261Z,101125.22
2023-06-14T15:14:27.165Z,101122.97
2023-06-14T15:15:18.952Z,101119.19
2023-06-14T15:16:10.561Z,101128.50
2023-06-14T15:17:02.865Z,101124.09
2023-06-14T15:17:55.369Z,101121.13
2023-06-14T15:18:46.909Z,101118.75
2023-06-14T15:19:38.408Z,101121.88
2023-06-14T15:20:30.276Z,101121.72
2023-06-14T15:21:23.683Z,101119.34
2023-06-14T15:22:16.020Z,101117.06
2023-06-14T15:23:07.409Z,101116.09
2023-06-14T15:23:58.958Z,101119.03
2023-06-14T15:24:51.024Z,101129.34
2023-06-14T15:25:42.702Z,101129.78
2023-06-14T15:26:34.264Z,101118.97
2023-06-14T15:27:25.906Z,101129.09
2023-06-14T15:28:20.154Z,101129.19
2023-06-14T15:29:11.542Z,101126.38
2023-06-14T15:30:04.258Z,101135.09
2023-06-14T15:30:57.117Z,101129.75
2023-06-14T15:31:49.907Z,101125.47
2023-06-14T15:32:41.487Z,101125.94
2023-06-14T15:33:32.940Z,101129.03
2023-06-14T15:34:24.757Z,101131.41
2023-06-14T15:35:21.109Z,101130.72
2023-06-14T15:36:12.683Z,101132.47
2023-06-14T15:37:04.871Z,101123.94
2023-06-14T15:37:59.150Z,101132.31
2023-06-14T15:38:50.775Z,101134.25
2023-06-14T15:39:42.226Z,101125.34
2023-06-14T15:40:35.798Z,101130.63
2023-06-14T15:41:29.555Z,101125.78
2023-06-14T15:42:22.771Z,101126.59
2023-06-14T15:43:14.364Z,101131.09
2023-06-14T15:44:05.890Z,101132.94
2023-06-14T15:44:59.746Z,101125.94
2023-06-14T15:45:53.588Z,101132.16
2023-06-14T15:46:45.194Z,101132.13
2023-06-14T15:47:36.785Z,101132.53
2023-06-14T15:48:29.752Z,101131.75
2023-06-14T15:49:21.838Z,101139.69
2023-06-14T15:50:13.366Z,101130.72
2023-06-14T15:51:04.917Z,101142.25
2023-06-14T15:52:03.768Z,101136.03
2023-06-14T15:52:55.610Z,101140.34
2023-06-14T15:53:47.200Z,101140.63
2023-06-14T15:54:39.037Z,101138.19
2023-06-14T15:55:32.548Z,101136.81
2023-06-14T15:56:24.374Z,101136.81
2023-06-14T15:57:15.896Z,101135.88
2023-06-14T15:58:08.627Z,101136.38
2023-06-14T15:59:00.619Z,101136.22